createdAt,value
2019-02-17T00:00:36.163Z,6.13
2019-02-17T00:01:24.232Z,5.83
2019-02-17T00:02:01.170Z,6.10
2019-02-17T00:02:37.411Z,6.60
2019-02-17T00:03:13.377Z,5.97
2019-02-17T00:03:49.596Z,6.00
2019-02-17T00:04:25.711Z,6.33
2019-02-17T00:05:01.781Z,6.17
2019-02-17T00:05:37.962Z,6.83
2019-02-17T00:06:14.019Z,5.83
2019-02-17T00:06:49.957Z,6.93
2019-02-17T00:07:26.030Z,7.10
2019-02-17T00:08:02.201Z,6.27
2019-02-17T00:08:38.266Z,6.97
2019-02-17T00:09:15.003Z,5.60
2019-02-17T00:09:51.127Z,5.87
2019-02-17T00:10:27.297Z,6.20
2019-02-17T00:11:03.291Z,6.77
2019-02-17T00:11:39.546Z,7.00
2019-02-17T00:12:15.889Z,6.23
2019-02-17T00:12:52.178Z,7.40
2019-02-17T00:13:28.386Z,6.20
2019-02-17T00:14:04.600Z,6.40
2019-02-17T00:14:40.875Z,7.10
2019-02-17T00:15:17.269Z,6.83
2019-02-17T00:15:53.474Z,6.20
2019-02-17T00:16:29.735Z,5.03
2019-02-17T00:17:05.991Z,6.03
2019-02-17T00:17:42.292Z,7.43
2019-02-17T00:18:18.222Z,6.43
2019-02-17T00:18:54.336Z,6.40
2019-02-17T00:19:30.392Z,6.07
2019-02-17T00:20:08.158Z,6.50
2019-02-17T00:20:44.530Z,5.43
2019-02-17T00:21:20.679Z,6.10
2019-02-17T00:21:56.805Z,5.87
2019-02-17T00:22:33.014Z,5.83
2019-02-17T00:23:09.127Z,6.90
2019-02-17T00:23:45.390Z,5.83
2019-02-17T00:24:21.583Z,5.63
2019-02-17T00:24:57.697Z,6.87
2019-02-17T00:25:33.931Z,7.40
2019-02-17T00:26:10.127Z,5.90
2019-02-17T00:26:46.320Z,6.37
2019-02-17T00:27:22.632Z,5.67
2019-02-17T00:27:58.806Z,6.60
2019-02-17T00:28:35.078Z,6.30
2019-02-17T00:29:11.240Z,6.20
2019-02-17T00:29:47.279Z,7.20
2019-02-17T00:30:23.570Z,6.30
2019-02-17T00:30:59.554Z,7.80
2019-02-17T00:31:35.753Z,6.97
2019-02-17T00:32:12.021Z,6.07
2019-02-17T00:32:48.168Z,6.13
2019-02-17T00:33:24.132Z,7.07
2019-02-17T00:34:00.272Z,6.30
2019-02-17T00:34:36.422Z,6.70
2019-02-17T00:35:12.685Z,6.80
2019-02-17T00:35:48.956Z,7.37
2019-02-17T00:36:25.313Z,6.67
2019-02-17T00:37:01.513Z,6.00
2019-02-17T00:37:37.585Z,8.70
2019-02-17T00:38:13.813Z,7.77
2019-02-17T00:38:49.849Z,6.70
2019-02-17T00:39:26.122Z,7.13
2019-02-17T00:40:02.151Z,7.00
2019-02-17T00:40:38.464Z,6.93
2019-02-17T00:41:14.746Z,6.53
2019-02-17T00:41:50.732Z,6.50
2019-02-17T00:42:26.774Z,6.33
2019-02-17T00:43:02.868Z,6.43
2019-02-17T00:43:38.867Z,7.07
2019-02-17T00:44:14.894Z,7.97
2019-02-17T00:44:50.900Z,7.17
2019-02-17T00:45:26.857Z,6.23
2019-02-17T00:46:02.882Z,7.33
2019-02-17T00:46:39.080Z,8.03
2019-02-17T00:47:15.239Z,6.53
2019-02-17T00:47:51.247Z,5.70
2019-02-17T00:48:27.226Z,5.53
2019-02-17T00:49:03.394Z,7.27
2019-02-17T00:49:39.660Z,6.43
2019-02-17T00:50:15.935Z,7.00
2019-02-17T00:50:51.988Z,6.57
2019-02-17T00:51:28.130Z,6.30
2019-02-17T00:52:04.088Z,7.10
2019-02-17T00:52:40.364Z,7.10
2019-02-17T00:53:16.486Z,6.07
2019-02-17T00:53:52.631Z,6.00
2019-02-17T00:54:28.774Z,6.10
2019-02-17T00:55:04.803Z,5.57
2019-02-17T00:55:41.013Z,7.30
2019-02-17T00:56:17.200Z,6.47
2019-02-17T00:56:53.437Z,7.23
2019-02-17T00:57:29.542Z,7.50
2019-02-17T00:58:05.715Z,7.00
2019-02-17T00:58:41.811Z,7.27
2019-02-17T00:59:17.830Z,7.10
2019-02-17T00:59:54.009Z,6.50
2019-02-17T01:00:30.026Z,7.10
2019-02-17T01:01:06.133Z,5.93
2019-02-17T01:01:42.213Z,8.60
2019-02-17T01:02:18.472Z,6.13
2019-02-17T01:02:54.726Z,6.20
2019-02-17T01:03:30.902Z,5.87
2019-02-17T01:04:06.985Z,7.20
2019-02-17T01:04:43.058Z,5.80
2019-02-17T01:05:19.315Z,5.80
2019-02-17T01:05:55.722Z,7.00
2019-02-17T01:06:31.837Z,6.70
2019-02-17T01:07:07.934Z,7.00
2019-02-17T01:07:44.199Z,6.13
2019-02-17T01:08:20.291Z,7.03
2019-02-17T01:08:56.524Z,6.77
2019-02-17T01:09:32.546Z,6.43
2019-02-17T01:10:09.338Z,5.00
2019-02-17T01:10:45.600Z,6.27
2019-02-17T01:11:21.819Z,5.83
2019-02-17T01:11:57.799Z,6.10
2019-02-17T01:12:33.841Z,6.20
2019-02-17T01:13:10.003Z,6.77
2019-02-17T01:13:46.144Z,5.73
2019-02-17T01:14:22.241Z,5.70
2019-02-17T01:14:58.508Z,6.00
2019-02-17T01:15:34.879Z,6.67
2019-02-17T01:16:11.087Z,5.07
2019-02-17T01:16:47.285Z,6.47
2019-02-17T01:17:23.446Z,7.53
2019-02-17T01:17:59.623Z,6.07
2019-02-17T01:18:35.873Z,7.07
2019-02-17T01:19:12.179Z,8.07
2019-02-17T01:19:48.178Z,6.80
2019-02-17T01:20:24.216Z,5.90
2019-02-17T01:21:00.441Z,7.03
2019-02-17T01:21:36.487Z,6.90
2019-02-17T01:22:12.728Z,6.73
2019-02-17T01:22:48.852Z,6.10
2019-02-17T01:23:25.075Z,6.43
2019-02-17T01:24:01.249Z,6.33
2019-02-17T01:24:37.368Z,6.10
2019-02-17T01:25:13.533Z,5.77
2019-02-17T01:25:49.626Z,5.90
2019-02-17T01:26:25.711Z,6.07
2019-02-17T01:27:01.857Z,6.30
2019-02-17T01:27:38.136Z,6.73
2019-02-17T01:28:14.291Z,7.87
2019-02-17T01:28:50.490Z,6.63
2019-02-17T01:29:26.689Z,5.80
2019-02-17T01:30:02.916Z,5.90
2019-02-17T01:30:39.097Z,6.73
2019-02-17T01:31:15.356Z,6.10
2019-02-17T01:31:51.495Z,6.43
2019-02-17T01:32:27.668Z,6.03
2019-02-17T01:33:03.681Z,6.23
2019-02-17T01:33:39.909Z,6.20
2019-02-17T01:34:15.859Z,6.53
2019-02-17T01:34:52.074Z,6.70
2019-02-17T01:35:28.080Z,6.80
2019-02-17T01:36:04.245Z,6.93
2019-02-17T01:36:40.398Z,6.70
2019-02-17T01:37:16.341Z,6.80
2019-02-17T01:37:52.443Z,7.83
2019-02-17T01:38:28.545Z,6.90
2019-02-17T01:39:05.766Z,5.67
2019-02-17T01:39:41.835Z,6.90
2019-02-17T01:40:18.052Z,6.03
2019-02-17T01:40:54.229Z,7.20
2019-02-17T01:41:30.254Z,7.00
2019-02-17T01:42:06.351Z,6.40
2019-02-17T01:42:42.440Z,7.37
2019-02-17T01:43:18.653Z,8.07
2019-02-17T01:43:54.900Z,6.00
2019-02-17T01:44:31.250Z,5.87
2019-02-17T01:45:07.730Z,6.50
2019-02-17T01:45:43.731Z,7.27
2019-02-17T01:46:19.898Z,7.10
2019-02-17T01:46:56.077Z,7.00
2019-02-17T01:47:32.349Z,6.13
2019-02-17T01:48:08.469Z,5.67
2019-02-17T01:48:44.645Z,6.30
2019-02-17T01:49:20.787Z,6.93
2019-02-17T01:49:56.989Z,5.70
2019-02-17T01:50:33.105Z,6.30
2019-02-17T01:51:09.430Z,6.33
2019-02-17T01:51:45.583Z,6.10
2019-02-17T01:52:21.729Z,5.80
2019-02-17T01:52:57.861Z,6.63
2019-02-17T01:53:34.036Z,5.50
2019-02-17T01:54:10.052Z,6.50
2019-02-17T01:54:46.366Z,7.03
2019-02-17T01:55:22.726Z,6.90
2019-02-17T01:55:58.815Z,6.60
2019-02-17T01:56:34.972Z,6.90
2019-02-17T01:57:11.085Z,6.33
2019-02-17T01:57:47.120Z,5.93
2019-02-17T01:58:23.296Z,7.40
2019-02-17T01:58:59.445Z,5.87
2019-02-17T01:59:35.617Z,6.57
2019-02-17T02:00:13.084Z,8.10
2019-02-17T02:00:49.178Z,6.43
2019-02-17T02:01:25.228Z,6.43
2019-02-17T02:02:01.662Z,6.60
2019-02-17T02:02:38.092Z,6.40
2019-02-17T02:03:14.411Z,6.63
2019-02-17T02:03:50.708Z,6.30
2019-02-17T02:04:26.929Z,6.40
2019-02-17T02:05:03.343Z,5.70
2019-02-17T02:05:39.455Z,6.63
2019-02-17T02:06:15.633Z,6.67
2019-02-17T02:06:51.916Z,6.23
2019-02-17T02:07:28.032Z,5.63
2019-02-17T02:08:04.080Z,6.47
2019-02-17T02:08:40.120Z,7.33
2019-02-17T02:09:16.075Z,5.40
2019-02-17T02:09:52.026Z,6.27
2019-02-17T02:10:28.016Z,6.00
2019-02-17T02:11:04.203Z,6.13
2019-02-17T02:11:40.181Z,6.40
2019-02-17T02:12:16.435Z,6.80
2019-02-17T02:12:52.629Z,5.93
2019-02-17T02:13:28.763Z,6.40
2019-02-17T02:14:06.417Z,6.50
2019-02-17T02:14:42.837Z,6.97
2019-02-17T02:15:18.951Z,7.50
2019-02-17T02:15:55.067Z,6.10
2019-02-17T02:16:31.094Z,6.03
2019-02-17T02:17:07.043Z,6.80
2019-02-17T02:17:43.154Z,7.13
2019-02-17T02:18:19.307Z,6.40
2019-02-17T02:18:55.515Z,7.77
2019-02-17T02:19:31.461Z,7.43
2019-02-17T02:20:08.407Z,6.43
2019-02-17T02:20:44.549Z,7.83
2019-02-17T02:21:20.911Z,7.27
2019-02-17T02:21:57.107Z,7.67
2019-02-17T02:22:33.241Z,6.57
2019-02-17T02:23:09.318Z,7.53
2019-02-17T02:23:45.488Z,6.67
2019-02-17T02:24:21.625Z,8.03
2019-02-17T02:24:57.901Z,7.37
2019-02-17T02:25:34.102Z,6.70
2019-02-17T02:26:10.170Z,7.13
2019-02-17T02:26:46.268Z,6.87
2019-02-17T02:27:22.409Z,7.40
2019-02-17T02:27:58.567Z,7.57
2019-02-17T02:28:34.725Z,7.17
2019-02-17T02:29:10.666Z,7.93
2019-02-17T02:29:46.847Z,7.43
2019-02-17T02:30:22.859Z,6.90
2019-02-17T02:30:59.043Z,6.57
2019-02-17T02:31:35.243Z,6.80
2019-02-17T02:32:11.289Z,6.40
2019-02-17T02:32:47.428Z,7.93
2019-02-17T02:33:23.485Z,5.50
2019-02-17T02:33:59.527Z,7.30
2019-02-17T02:34:35.887Z,7.90
2019-02-17T02:35:12.066Z,7.70
2019-02-17T02:35:48.243Z,7.63
2019-02-17T02:36:25.733Z,8.00
2019-02-17T02:37:01.984Z,8.00
2019-02-17T02:37:38.229Z,7.00
2019-02-17T02:38:14.873Z,7.87
2019-02-17T02:38:50.937Z,5.87
2019-02-17T02:39:27.213Z,6.80
2019-02-17T02:40:03.374Z,7.90
2019-02-17T02:40:39.511Z,6.80
2019-02-17T02:41:15.594Z,6.37
2019-02-17T02:41:51.617Z,6.80
2019-02-17T02:42:27.787Z,7.00
2019-02-17T02:43:04.114Z,6.30
2019-02-17T02:43:40.155Z,6.60
2019-02-17T02:44:16.436Z,7.10
2019-02-17T02:44:52.647Z,6.70
2019-02-17T02:45:28.723Z,6.27
2019-02-17T02:46:05.138Z,7.37
2019-02-17T02:46:41.413Z,6.50
2019-02-17T02:47:17.557Z,7.17
2019-02-17T02:47:53.497Z,6.07
2019-02-17T02:48:29.753Z,6.87
2019-02-17T02:49:06.031Z,6.40
2019-02-17T02:49:42.119Z,6.03
2019-02-17T02:50:18.329Z,8.13
2019-02-17T02:50:54.670Z,7.63
2019-02-17T02:51:31.051Z,8.33
2019-02-17T02:52:07.095Z,7.50
2019-02-17T02:52:43.052Z,8.20
2019-02-17T02:53:19.306Z,7.37
2019-02-17T02:53:55.486Z,6.30
2019-02-17T02:54:31.772Z,8.30
2019-02-17T02:55:08.195Z,7.33
2019-02-17T02:55:44.363Z,6.60
2019-02-17T02:56:20.573Z,7.80
2019-02-17T02:56:56.666Z,6.80
2019-02-17T02:57:32.773Z,7.37
2019-02-17T02:58:08.980Z,7.07
2019-02-17T02:58:45.228Z,5.90
2019-02-17T02:59:21.351Z,6.80
2019-02-17T02:59:57.428Z,6.43
2019-02-17T03:00:33.709Z,7.53
2019-02-17T03:01:10.695Z,7.50
2019-02-17T03:01:46.823Z,6.97
2019-02-17T03:02:22.798Z,6.77
2019-02-17T03:02:58.945Z,7.70
2019-02-17T03:03:35.276Z,7.07
2019-02-17T03:04:11.471Z,6.30
2019-02-17T03:04:47.513Z,6.60
2019-02-17T03:05:23.732Z,6.53
2019-02-17T03:06:09.531Z,6.93
2019-02-17T03:07:10.575Z,7.07
2019-02-17T03:07:46.774Z,6.40
2019-02-17T03:08:22.920Z,6.40
2019-02-17T03:08:59.088Z,6.10
2019-02-17T03:09:35.291Z,6.40
2019-02-17T03:10:11.742Z,6.50
2019-02-17T03:10:47.906Z,5.90
2019-02-17T03:11:24.166Z,6.20
2019-02-17T03:12:00.421Z,7.10
2019-02-17T03:12:36.664Z,6.67
2019-02-17T03:13:12.732Z,5.57
2019-02-17T03:13:48.770Z,6.70
2019-02-17T03:14:24.989Z,6.10
2019-02-17T03:15:01.114Z,6.13
2019-02-17T03:15:37.296Z,6.90
2019-02-17T03:16:13.367Z,5.63
2019-02-17T03:16:49.556Z,7.20
2019-02-17T03:17:25.718Z,5.33
2019-02-17T03:18:01.715Z,5.70
2019-02-17T03:18:37.940Z,6.37
2019-02-17T03:19:14.080Z,6.90
2019-02-17T03:19:50.207Z,7.20
2019-02-17T03:20:26.341Z,6.30
2019-02-17T03:21:02.318Z,6.40
2019-02-17T03:21:38.523Z,6.03
2019-02-17T03:22:14.838Z,6.70
2019-02-17T03:22:51.183Z,5.80
2019-02-17T03:23:27.480Z,5.23
2019-02-17T03:24:03.626Z,6.50
2019-02-17T03:24:39.735Z,5.70
2019-02-17T03:25:15.770Z,5.63
2019-02-17T03:25:51.709Z,6.33
2019-02-17T03:26:27.858Z,5.60
2019-02-17T03:27:03.950Z,5.77
2019-02-17T03:27:39.911Z,7.13
2019-02-17T03:28:15.973Z,6.10
2019-02-17T03:28:52.118Z,5.80
2019-02-17T03:29:28.446Z,5.50
2019-02-17T03:30:06.228Z,6.23
2019-02-17T03:30:42.483Z,5.40
2019-02-17T03:31:18.596Z,6.20
2019-02-17T03:31:54.680Z,5.70
2019-02-17T03:32:31.017Z,6.07
2019-02-17T03:33:07.259Z,5.73
2019-02-17T03:33:43.443Z,5.50
2019-02-17T03:34:19.659Z,5.77
2019-02-17T03:34:55.834Z,5.73
2019-02-17T03:35:31.892Z,5.70
2019-02-17T03:36:08.207Z,5.23
2019-02-17T03:36:44.397Z,6.00
2019-02-17T03:37:20.607Z,5.87
2019-02-17T03:37:56.728Z,5.83
2019-02-17T03:38:32.901Z,7.37
2019-02-17T03:39:09.560Z,5.90
2019-02-17T03:39:45.722Z,6.20
2019-02-17T03:40:21.883Z,5.93
2019-02-17T03:40:58.095Z,7.03
2019-02-17T03:41:34.266Z,6.30
2019-02-17T03:42:10.312Z,5.27
2019-02-17T03:42:46.571Z,5.30
2019-02-17T03:43:22.666Z,5.73
2019-02-17T03:43:58.897Z,5.30
2019-02-17T03:44:35.017Z,4.80
2019-02-17T03:45:11.177Z,5.87
2019-02-17T03:45:47.434Z,5.37
2019-02-17T03:46:23.731Z,5.57
2019-02-17T03:46:59.889Z,5.80
2019-02-17T03:47:36.065Z,5.97
2019-02-17T03:48:12.138Z,6.57
2019-02-17T03:48:48.223Z,5.60
2019-02-17T03:49:24.225Z,6.43
2019-02-17T03:50:00.684Z,6.43
2019-02-17T03:50:36.918Z,5.83
2019-02-17T03:51:13.249Z,5.80
2019-02-17T03:51:49.518Z,5.97
2019-02-17T03:52:25.763Z,4.80
2019-02-17T03:53:01.812Z,4.97
2019-02-17T03:53:37.816Z,5.20
2019-02-17T03:54:13.906Z,6.20
2019-02-17T03:54:50.024Z,5.60
2019-02-17T03:55:26.125Z,5.80
2019-02-17T03:56:02.562Z,4.93
2019-02-17T03:56:38.778Z,5.77
2019-02-17T03:57:14.948Z,5.13
2019-02-17T03:57:51.275Z,5.73
2019-02-17T03:58:27.450Z,5.47
2019-02-17T03:59:03.577Z,5.30
2019-02-17T03:59:39.842Z,6.70
2019-02-17T04:00:17.295Z,5.40
2019-02-17T04:00:53.875Z,6.50
2019-02-17T04:01:29.963Z,6.60
2019-02-17T04:02:06.293Z,5.73
2019-02-17T04:02:42.459Z,5.80
2019-02-17T04:03:18.677Z,5.77
2019-02-17T04:03:54.857Z,5.60
2019-02-17T04:04:31.047Z,5.10
2019-02-17T04:05:07.260Z,5.03
2019-02-17T04:05:43.289Z,6.23
2019-02-17T04:06:19.473Z,4.63
2019-02-17T04:06:55.530Z,6.37
2019-02-17T04:07:31.857Z,5.77
2019-02-17T04:08:08.029Z,6.10
2019-02-17T04:08:44.028Z,5.10
2019-02-17T04:09:20.250Z,6.30
2019-02-17T04:09:56.845Z,5.70
2019-02-17T04:10:32.991Z,6.60
2019-02-17T04:11:09.189Z,6.37
2019-02-17T04:11:45.330Z,5.07
2019-02-17T04:12:21.379Z,5.70
2019-02-17T04:12:57.479Z,4.90
2019-02-17T04:13:33.460Z,5.20
2019-02-17T04:14:09.585Z,6.20
2019-02-17T04:14:45.872Z,5.73
2019-02-17T04:15:22.015Z,6.03
2019-02-17T04:15:58.265Z,5.30
2019-02-17T04:16:34.481Z,5.30
2019-02-17T04:17:10.719Z,5.27
2019-02-17T04:17:46.696Z,5.90
2019-02-17T04:18:22.755Z,5.27
2019-02-17T04:18:58.770Z,5.43
2019-02-17T04:19:34.866Z,5.30
2019-02-17T04:20:11.257Z,5.40
2019-02-17T04:20:47.413Z,7.07
2019-02-17T04:21:23.517Z,7.10
2019-02-17T04:21:59.720Z,6.07
2019-02-17T04:22:35.793Z,5.60
2019-02-17T04:23:11.956Z,6.53
2019-02-17T04:23:48.094Z,5.13
2019-02-17T04:24:24.401Z,5.60
2019-02-17T04:25:00.537Z,6.60
2019-02-17T04:25:37.111Z,7.13
2019-02-17T04:26:13.188Z,6.03
2019-02-17T04:26:49.302Z,6.90
2019-02-17T04:27:25.587Z,6.13
2019-02-17T04:28:01.857Z,5.00
2019-02-17T04:28:38.146Z,5.90
2019-02-17T04:29:14.266Z,6.03
2019-02-17T04:29:50.311Z,5.77
2019-02-17T04:30:29.598Z,6.60
2019-02-17T04:31:04.176Z,15.70
2019-02-17T04:31:40.541Z,12.50
2019-02-17T04:32:16.667Z,9.40
2019-02-17T04:32:52.688Z,7.97
2019-02-17T04:33:28.750Z,5.50
2019-02-17T04:34:04.883Z,6.13
2019-02-17T04:34:41.058Z,6.40
2019-02-17T04:35:17.211Z,6.87
2019-02-17T04:35:53.210Z,5.27
2019-02-17T04:36:29.304Z,5.27
2019-02-17T04:37:05.305Z,4.97
2019-02-17T04:37:41.632Z,4.30
2019-02-17T04:38:17.871Z,3.80
2019-02-17T04:38:54.023Z,4.33
2019-02-17T04:39:30.055Z,4.90
2019-02-17T04:40:06.276Z,5.70
2019-02-17T04:40:42.510Z,5.20
2019-02-17T04:41:18.557Z,6.10
2019-02-17T04:41:54.718Z,4.10
2019-02-17T04:42:31.002Z,4.83
2019-02-17T04:43:07.297Z,4.97
2019-02-17T04:43:43.349Z,3.87
2019-02-17T04:44:19.444Z,3.40
2019-02-17T04:44:55.503Z,3.80
2019-02-17T04:45:31.635Z,4.03
2019-02-17T04:46:08.425Z,4.60
2019-02-17T04:46:44.411Z,5.10
2019-02-17T04:47:20.633Z,4.30
2019-02-17T04:47:56.878Z,4.23
2019-02-17T04:48:32.886Z,5.00
2019-02-17T04:49:09.132Z,5.00
2019-02-17T04:49:45.328Z,4.93
2019-02-17T04:50:21.416Z,4.87
2019-02-17T04:50:57.676Z,4.33
2019-02-17T04:51:33.865Z,5.83
2019-02-17T04:52:10.071Z,5.30
2019-02-17T04:52:46.148Z,5.30
2019-02-17T04:53:22.416Z,6.70
2019-02-17T04:53:58.462Z,4.63
2019-02-17T04:54:34.594Z,5.37
2019-02-17T04:55:10.746Z,6.30
2019-02-17T04:55:46.754Z,7.80
2019-02-17T04:56:22.942Z,5.60
2019-02-17T04:56:59.234Z,6.20
2019-02-17T04:57:35.352Z,5.67
2019-02-17T04:58:11.600Z,6.33
2019-02-17T04:58:48.483Z,5.27
2019-02-17T04:59:24.813Z,5.80
2019-02-17T05:00:00.965Z,6.10
2019-02-17T05:00:40.098Z,5.70
2019-02-17T05:01:14.990Z,7.07
2019-02-17T05:01:51.343Z,6.20
2019-02-17T05:02:27.621Z,5.87
2019-02-17T05:03:03.714Z,6.83
2019-02-17T05:03:39.985Z,6.87
2019-02-17T05:04:16.224Z,5.43
2019-02-17T05:04:52.307Z,6.43
2019-02-17T05:05:28.550Z,5.87
2019-02-17T05:06:04.597Z,5.53
2019-02-17T05:06:41.010Z,5.40
2019-02-17T05:07:17.183Z,4.80
2019-02-17T05:07:53.261Z,4.40
2019-02-17T05:08:29.832Z,4.47
2019-02-17T05:09:06.524Z,4.90
2019-02-17T05:09:42.574Z,4.20
2019-02-17T05:10:18.778Z,6.00
2019-02-17T05:10:54.960Z,4.47
2019-02-17T05:11:31.253Z,5.70
2019-02-17T05:12:07.489Z,6.07
2019-02-17T05:12:43.489Z,4.77
2019-02-17T05:13:19.498Z,5.93
2019-02-17T05:13:55.695Z,5.57
2019-02-17T05:14:31.798Z,7.10
2019-02-17T05:15:08.559Z,6.90
2019-02-17T05:15:44.823Z,6.50
2019-02-17T05:16:21.025Z,6.90
2019-02-17T05:16:57.303Z,6.13
2019-02-17T05:17:33.454Z,5.70
2019-02-17T05:18:09.513Z,5.00
2019-02-17T05:18:45.548Z,6.47
2019-02-17T05:19:21.869Z,4.93
2019-02-17T05:19:57.982Z,3.90
2019-02-17T05:20:34.219Z,4.37
2019-02-17T05:21:10.322Z,4.77
2019-02-17T05:21:46.278Z,5.10
2019-02-17T05:22:22.422Z,3.87
2019-02-17T05:22:58.645Z,3.67
2019-02-17T05:23:34.787Z,3.53
2019-02-17T05:24:10.922Z,3.53
2019-02-17T05:24:46.987Z,3.80
2019-02-17T05:25:23.064Z,3.43
2019-02-17T05:25:59.223Z,3.43
2019-02-17T05:26:35.461Z,2.93
2019-02-17T05:27:11.659Z,3.97
2019-02-17T05:27:47.633Z,3.70
2019-02-17T05:28:23.893Z,3.33
2019-02-17T05:28:59.900Z,4.20
2019-02-17T05:29:35.973Z,3.87
2019-02-17T05:30:12.331Z,4.20
2019-02-17T05:30:53.000Z,3.80
2019-02-17T05:31:26.468Z,4.67
2019-02-17T05:32:02.431Z,3.83
2019-02-17T05:32:38.449Z,4.17
2019-02-17T05:33:14.682Z,4.00
2019-02-17T05:33:50.682Z,3.97
2019-02-17T05:34:26.908Z,3.83
2019-02-17T05:35:03.109Z,4.00
2019-02-17T05:35:39.135Z,3.80
2019-02-17T05:36:15.212Z,4.10
2019-02-17T05:36:51.413Z,4.70
2019-02-17T05:37:27.489Z,4.33
2019-02-17T05:38:03.635Z,4.33
2019-02-17T05:38:39.916Z,4.43
2019-02-17T05:39:15.927Z,4.37
2019-02-17T05:39:52.262Z,4.77
2019-02-17T05:40:28.461Z,4.10
2019-02-17T05:41:04.659Z,4.80
2019-02-17T05:41:40.969Z,5.77
2019-02-17T05:42:17.093Z,4.83
2019-02-17T05:42:53.241Z,4.40
2019-02-17T05:43:29.303Z,4.40
2019-02-17T05:44:05.391Z,5.30
2019-02-17T05:44:41.500Z,4.80
2019-02-17T05:45:17.569Z,5.97
2019-02-17T05:45:53.709Z,4.27
2019-02-17T05:46:29.684Z,5.00
2019-02-17T05:47:05.797Z,4.80
2019-02-17T05:47:41.893Z,4.43
2019-02-17T05:48:18.036Z,4.60
2019-02-17T05:48:54.141Z,4.43
2019-02-17T05:49:30.252Z,5.10
2019-02-17T05:50:06.634Z,5.00
2019-02-17T05:50:42.852Z,4.83
2019-02-17T05:51:19.049Z,4.43
2019-02-17T05:51:55.294Z,4.63
2019-02-17T05:52:31.526Z,4.00
2019-02-17T05:53:07.554Z,4.30
2019-02-17T05:53:43.724Z,4.40
2019-02-17T05:54:19.896Z,4.80
2019-02-17T05:54:56.025Z,4.77
2019-02-17T05:55:32.139Z,4.37
2019-02-17T05:56:08.197Z,4.27
2019-02-17T05:56:45.113Z,4.97
2019-02-17T05:57:21.871Z,3.80
2019-02-17T05:57:58.722Z,3.33
2019-02-17T05:58:35.567Z,4.50
2019-02-17T05:59:12.410Z,4.53
2019-02-17T05:59:49.147Z,5.00
2019-02-17T06:00:31.800Z,4.17
2019-02-17T06:01:08.488Z,4.73
2019-02-17T06:01:45.221Z,4.10
2019-02-17T06:02:21.950Z,4.30
2019-02-17T06:02:58.851Z,4.07
2019-02-17T06:03:35.602Z,4.20
2019-02-17T06:04:12.556Z,4.17
2019-02-17T06:04:49.243Z,3.67
2019-02-17T06:05:26.134Z,3.53
2019-02-17T06:06:02.971Z,4.00
2019-02-17T06:06:39.792Z,3.80
2019-02-17T06:07:15.917Z,4.10
2019-02-17T06:07:52.129Z,3.80
2019-02-17T06:08:28.177Z,4.37
2019-02-17T06:09:05.087Z,3.90
2019-02-17T06:09:41.086Z,4.10
2019-02-17T06:10:17.329Z,3.20
2019-02-17T06:10:53.455Z,4.13
2019-02-17T06:11:29.493Z,3.80
2019-02-17T06:12:05.633Z,3.17
2019-02-17T06:12:41.575Z,3.50
2019-02-17T06:13:17.570Z,3.37
2019-02-17T06:13:53.783Z,3.70
2019-02-17T06:14:29.957Z,3.70
2019-02-17T06:15:06.026Z,4.23
2019-02-17T06:15:42.146Z,3.90
2019-02-17T06:16:18.195Z,4.43
2019-02-17T06:16:54.288Z,3.67
2019-02-17T06:17:30.451Z,3.27
2019-02-17T06:18:06.466Z,3.90
2019-02-17T06:18:42.513Z,4.80
2019-02-17T06:19:18.595Z,3.60
2019-02-17T06:19:54.558Z,4.27
2019-02-17T06:20:30.703Z,4.00
2019-02-17T06:21:07.039Z,3.93
2019-02-17T06:21:43.055Z,3.17
2019-02-17T06:22:19.174Z,2.93
2019-02-17T06:22:55.232Z,4.07
2019-02-17T06:23:31.439Z,3.20
2019-02-17T06:24:07.701Z,4.20
2019-02-17T06:24:43.796Z,3.50
2019-02-17T06:25:19.898Z,4.13
2019-02-17T06:25:56.155Z,3.40
2019-02-17T06:26:32.312Z,4.47
2019-02-17T06:27:08.427Z,4.03
2019-02-17T06:27:44.407Z,4.47
2019-02-17T06:28:20.648Z,3.80
2019-02-17T06:28:56.888Z,3.73
2019-02-17T06:29:32.965Z,3.53
2019-02-17T06:30:09.418Z,3.87
2019-02-17T06:30:45.445Z,4.63
2019-02-17T06:31:21.568Z,3.27
2019-02-17T06:31:57.667Z,4.33
2019-02-17T06:32:33.781Z,4.37
2019-02-17T06:33:09.943Z,4.47
2019-02-17T06:33:46.208Z,4.13
2019-02-17T06:34:22.365Z,5.20
2019-02-17T06:34:58.562Z,3.67
2019-02-17T06:35:34.698Z,3.90
2019-02-17T06:36:10.766Z,4.20
2019-02-17T06:36:46.938Z,3.87
2019-02-17T06:37:23.039Z,3.70
2019-02-17T06:37:59.083Z,4.47
2019-02-17T06:38:35.211Z,3.60
2019-02-17T06:39:11.483Z,4.03
2019-02-17T06:39:47.468Z,4.10
2019-02-17T06:40:23.600Z,4.10
2019-02-17T06:40:59.637Z,4.50
2019-02-17T06:41:35.730Z,4.20
2019-02-17T06:42:11.878Z,4.10
2019-02-17T06:42:48.085Z,3.60
2019-02-17T06:43:24.215Z,4.10
2019-02-17T06:44:00.187Z,3.10
2019-02-17T06:44:36.362Z,3.40
2019-02-17T06:45:12.709Z,3.27
2019-02-17T06:45:49.117Z,3.67
2019-02-17T06:46:29.130Z,3.27
2019-02-17T06:47:07.397Z,3.40
2019-02-17T06:47:43.593Z,4.17
2019-02-17T06:48:19.779Z,3.63
2019-02-17T06:48:55.903Z,2.37
2019-02-17T06:49:32.100Z,3.90
2019-02-17T06:50:08.698Z,3.33
2019-02-17T06:50:44.659Z,3.73
2019-02-17T06:51:20.772Z,2.80
2019-02-17T06:51:57.027Z,4.30
2019-02-17T06:52:33.311Z,4.13
2019-02-17T06:53:09.376Z,3.70
2019-02-17T06:53:45.613Z,3.73
2019-02-17T06:54:21.839Z,3.53
2019-02-17T06:55:15.366Z,3.30
2019-02-17T06:56:12.843Z,3.03
2019-02-17T06:57:13.689Z,3.37
2019-02-17T06:57:50.040Z,3.60
2019-02-17T06:58:26.308Z,4.10
2019-02-17T06:59:02.391Z,3.33
2019-02-17T06:59:38.498Z,2.90
2019-02-17T07:00:23.861Z,2.60
2019-02-17T07:01:01.490Z,3.30
2019-02-17T07:01:37.543Z,3.83
2019-02-17T07:02:13.656Z,3.60
2019-02-17T07:02:49.694Z,3.30
2019-02-17T07:03:25.918Z,3.13
2019-02-17T07:04:02.115Z,3.37
2019-02-17T07:04:44.779Z,3.27
2019-02-17T07:05:42.781Z,2.93
2019-02-17T07:06:24.191Z,3.97
2019-02-17T07:07:03.534Z,2.53
2019-02-17T07:07:39.603Z,3.50
2019-02-17T07:08:15.777Z,3.57
2019-02-17T07:08:51.738Z,3.47
2019-02-17T07:09:27.913Z,3.03
2019-02-17T07:10:03.994Z,3.20
2019-02-17T07:10:40.114Z,3.40
2019-02-17T07:11:16.299Z,3.50
2019-02-17T07:11:52.687Z,3.37
2019-02-17T07:12:28.881Z,3.33
2019-02-17T07:13:04.974Z,3.43
2019-02-17T07:13:41.055Z,3.23
2019-02-17T07:14:17.092Z,2.40
2019-02-17T07:14:53.387Z,3.93
2019-02-17T07:15:29.479Z,2.87
2019-02-17T07:16:05.704Z,2.20
2019-02-17T07:16:41.943Z,3.57
2019-02-17T07:17:18.055Z,2.40
2019-02-17T07:17:54.077Z,2.80
2019-02-17T07:18:30.206Z,2.67
2019-02-17T07:19:06.347Z,2.40
2019-02-17T07:19:42.533Z,2.10
2019-02-17T07:20:18.799Z,1.93
2019-02-17T07:20:55.036Z,2.37
2019-02-17T07:21:31.028Z,2.63
2019-02-17T07:22:07.161Z,2.60
2019-02-17T07:22:43.282Z,2.90
2019-02-17T07:23:19.296Z,2.73
2019-02-17T07:23:55.439Z,2.17
2019-02-17T07:24:31.463Z,3.10
2019-02-17T07:25:07.702Z,3.30
2019-02-17T07:25:43.712Z,3.00
2019-02-17T07:26:19.778Z,2.73
2019-02-17T07:26:55.858Z,2.43
2019-02-17T07:27:31.942Z,3.23
2019-02-17T07:28:08.127Z,3.37
2019-02-17T07:28:44.364Z,2.40
2019-02-17T07:29:20.759Z,3.20
2019-02-17T07:29:56.751Z,2.70
2019-02-17T07:30:32.710Z,2.50
2019-02-17T07:31:08.925Z,2.50
2019-02-17T07:31:44.974Z,2.37
2019-02-17T07:32:21.075Z,2.90
2019-02-17T07:32:57.241Z,2.93
2019-02-17T07:33:33.387Z,3.40
2019-02-17T07:34:09.625Z,2.53
2019-02-17T07:34:45.868Z,2.70
2019-02-17T07:35:22.141Z,3.20
2019-02-17T07:35:58.353Z,2.90
2019-02-17T07:36:34.559Z,2.83
2019-02-17T07:37:10.728Z,3.17
2019-02-17T07:37:46.847Z,3.30
2019-02-17T07:38:23.096Z,2.83
2019-02-17T07:38:59.414Z,3.40
2019-02-17T07:39:35.700Z,2.77
2019-02-17T07:40:11.793Z,2.80
2019-02-17T07:40:47.988Z,3.20
2019-02-17T07:41:24.245Z,3.77
2019-02-17T07:42:00.498Z,3.20
2019-02-17T07:42:36.636Z,2.93
2019-02-17T07:43:12.816Z,2.70
2019-02-17T07:43:48.985Z,2.93
2019-02-17T07:44:25.220Z,3.13
2019-02-17T07:45:01.505Z,2.50
2019-02-17T07:45:37.772Z,3.67
2019-02-17T07:46:13.828Z,3.20
2019-02-17T07:46:49.981Z,3.00
2019-02-17T07:47:26.140Z,2.90
2019-02-17T07:48:02.330Z,3.43
2019-02-17T07:48:38.558Z,2.60
2019-02-17T07:49:14.617Z,3.20
2019-02-17T07:49:50.640Z,2.10
2019-02-17T07:50:26.878Z,2.27
2019-02-17T07:51:03.197Z,2.30
2019-02-17T07:51:39.306Z,2.50
2019-02-17T07:52:15.584Z,2.13
2019-02-17T07:52:51.580Z,2.80
2019-02-17T07:53:27.712Z,2.67
2019-02-17T07:54:03.935Z,2.27
2019-02-17T07:54:40.003Z,2.77
2019-02-17T07:55:15.956Z,2.30
2019-02-17T07:55:51.923Z,2.50
2019-02-17T07:56:28.075Z,2.50
2019-02-17T07:57:04.137Z,2.23
2019-02-17T07:57:40.205Z,2.53
2019-02-17T07:58:16.401Z,2.57
2019-02-17T07:58:52.554Z,2.37
2019-02-17T07:59:28.733Z,2.90
2019-02-17T08:00:05.011Z,2.20
2019-02-17T08:00:41.100Z,2.57
2019-02-17T08:01:17.171Z,2.03
2019-02-17T08:01:53.245Z,2.37
2019-02-17T08:02:29.349Z,2.33
2019-02-17T08:03:05.554Z,2.23
2019-02-17T08:03:41.581Z,2.70
2019-02-17T08:04:17.863Z,2.27
2019-02-17T08:04:54.088Z,2.80